createdAt,value
2018-03-28T00:02:07.486Z,9.03
2018-03-28T00:04:35.341Z,8.03
2018-03-28T00:07:03.216Z,8.93
2018-03-28T00:09:31.088Z,9.27
2018-03-28T00:11:58.935Z,9.33
2018-03-28T00:14:26.812Z,9.27
2018-03-28T00:16:54.695Z,8.70
2018-03-28T00:19:22.604Z,9.60
2018-03-28T00:21:50.531Z,10.00
2018-03-28T00:24:18.378Z,9.13
2018-03-28T00:26:46.233Z,9.70
2018-03-28T00:29:14.063Z,10.00
2018-03-28T00:31:42.018Z,9.33
2018-03-28T00:34:11.071Z,10.43
2018-03-28T00:36:38.952Z,9.87
2018-03-28T00:39:07.273Z,9.40
2018-03-28T00:41:35.118Z,9.90
2018-03-28T00:44:03.016Z,10.00
2018-03-28T00:46:31.168Z,10.00
2018-03-28T00:48:59.023Z,9.80
2018-03-28T00:51:33.009Z,9.53
2018-03-28T00:54:00.916Z,11.30
2018-03-28T00:56:28.780Z,10.40
2018-03-28T00:58:56.636Z,9.37
2018-03-28T01:01:24.568Z,10.50
2018-03-28T01:03:52.424Z,10.17
2018-03-28T01:06:20.318Z,11.20
2018-03-28T01:08:48.176Z,9.67
2018-03-28T01:11:16.068Z,11.40
2018-03-28T01:13:43.942Z,10.83
2018-03-28T01:16:11.813Z,10.47
2018-03-28T01:18:39.700Z,11.03
2018-03-28T01:21:07.747Z,10.47
2018-03-28T01:23:35.622Z,10.67
2018-03-28T01:26:03.572Z,9.70
2018-03-28T01:28:31.419Z,11.57
2018-03-28T01:30:59.302Z,10.83
2018-03-28T01:33:27.513Z,10.50
2018-03-28T01:35:55.408Z,10.70
2018-03-28T01:38:23.308Z,12.40
2018-03-28T01:40:51.168Z,10.90
2018-03-28T01:43:19.039Z,10.23
2018-03-28T01:45:46.888Z,11.20
2018-03-28T01:48:14.727Z,9.10
2018-03-28T01:50:42.596Z,13.10
2018-03-28T01:53:10.431Z,12.43
2018-03-28T01:55:38.324Z,10.60
2018-03-28T01:58:06.187Z,11.80
2018-03-28T02:00:34.053Z,12.37
2018-03-28T02:03:01.952Z,9.77
2018-03-28T02:05:29.780Z,13.67
2018-03-28T02:07:57.648Z,11.50
2018-03-28T02:10:25.612Z,12.37
2018-03-28T02:12:53.463Z,12.30
2018-03-28T02:15:21.328Z,11.50
2018-03-28T02:17:49.170Z,11.90
2018-03-28T02:20:17.146Z,11.90
2018-03-28T02:22:44.988Z,11.80
2018-03-28T02:25:12.970Z,18.47
2018-03-28T02:27:40.835Z,24.70
2018-03-28T02:30:08.731Z,21.30
2018-03-28T02:32:36.593Z,24.03
2018-03-28T02:35:04.439Z,22.50
2018-03-28T02:37:32.326Z,28.30
2018-03-28T02:40:00.228Z,21.87
2018-03-28T02:42:28.119Z,23.07
2018-03-28T02:44:56.052Z,20.07
2018-03-28T02:47:23.965Z,15.73
2018-03-28T02:49:51.900Z,18.50
2018-03-28T02:52:19.768Z,16.70
2018-03-28T02:54:47.628Z,16.23
2018-03-28T02:57:15.527Z,16.20
2018-03-28T02:59:43.391Z,13.53
2018-03-28T03:02:11.326Z,11.33
2018-03-28T03:04:39.299Z,14.53
2018-03-28T03:07:07.225Z,16.10
2018-03-28T03:09:35.108Z,14.03
2018-03-28T03:12:02.997Z,15.50
2018-03-28T03:14:30.884Z,15.80
2018-03-28T03:16:58.735Z,15.83
2018-03-28T03:19:26.660Z,16.07
2018-03-28T03:21:54.501Z,16.40
2018-03-28T03:24:22.476Z,17.00
2018-03-28T03:26:50.307Z,16.83
2018-03-28T03:29:18.207Z,17.80
2018-03-28T03:31:46.056Z,17.00
2018-03-28T03:34:13.950Z,18.87
2018-03-28T03:36:41.899Z,17.80
2018-03-28T03:39:09.845Z,18.50
2018-03-28T03:41:37.704Z,17.47
2018-03-28T03:44:05.816Z,17.37
2018-03-28T03:46:33.761Z,17.20
2018-03-28T03:49:01.613Z,18.43
2018-03-28T03:51:29.494Z,21.00
2018-03-28T03:53:57.439Z,20.00
2018-03-28T03:56:25.305Z,19.23
2018-03-28T03:58:53.189Z,15.70
2018-03-28T04:01:21.053Z,20.27
2018-03-28T04:03:48.930Z,19.50
2018-03-28T04:06:16.803Z,18.30
2018-03-28T04:08:44.712Z,20.87
2018-03-28T04:11:12.630Z,21.17
2018-03-28T04:13:40.604Z,20.80
2018-03-28T04:16:08.452Z,21.27
2018-03-28T04:18:36.293Z,20.43
2018-03-28T04:21:04.293Z,20.77
2018-03-28T04:23:32.172Z,21.27
2018-03-28T04:26:00.020Z,21.90
2018-03-28T04:28:27.907Z,21.17
2018-03-28T04:30:54.133Z,21.90
2018-03-28T04:33:20.254Z,20.00
2018-03-28T04:35:46.380Z,20.10
2018-03-28T04:38:12.488Z,19.70
2018-03-28T04:40:38.584Z,21.23
2018-03-28T04:43:04.748Z,21.47
2018-03-28T04:45:30.887Z,20.50
2018-03-28T04:47:57.034Z,21.53
2018-03-28T04:50:23.154Z,22.90
2018-03-28T04:52:50.036Z,16.87
2018-03-28T04:55:16.118Z,22.60
2018-03-28T04:57:42.245Z,22.47
2018-03-28T05:00:08.395Z,23.47
2018-03-28T05:02:34.488Z,22.27
2018-03-28T05:05:00.588Z,22.53
2018-03-28T05:07:27.417Z,22.47
2018-03-28T05:09:53.524Z,22.27
2018-03-28T05:12:19.668Z,22.10
2018-03-28T05:14:45.760Z,23.70
2018-03-28T05:17:12.601Z,21.63
2018-03-28T05:19:38.709Z,20.30
2018-03-28T05:22:04.791Z,23.80
2018-03-28T05:24:31.616Z,22.10
2018-03-28T05:26:57.733Z,23.07
2018-03-28T05:29:23.828Z,23.70
2018-03-28T05:31:50.741Z,23.00
2018-03-28T05:34:16.833Z,24.13
2018-03-28T05:36:42.928Z,20.63
2018-03-28T05:39:09.085Z,23.53
2018-03-28T05:41:35.980Z,23.90
2018-03-28T05:44:03.836Z,24.90
2018-03-28T05:46:32.487Z,26.17
2018-03-28T05:49:00.388Z,21.67
2018-03-28T05:51:28.220Z,25.20
2018-03-28T05:53:56.089Z,24.97
2018-03-28T05:56:23.981Z,23.67
2018-03-28T05:58:51.886Z,26.90
2018-03-28T06:01:19.746Z,30.20
2018-03-28T06:03:47.643Z,26.80
2018-03-28T06:06:15.501Z,24.83
2018-03-28T06:08:43.388Z,28.77
2018-03-28T06:11:11.257Z,26.63
2018-03-28T06:13:39.108Z,27.77
2018-03-28T06:16:07.040Z,28.17
2018-03-28T06:18:34.908Z,30.13
2018-03-28T06:21:02.834Z,32.37
2018-03-28T06:23:30.692Z,32.40
2018-03-28T06:25:58.568Z,30.23
2018-03-28T06:28:26.430Z,29.10
2018-03-28T06:30:54.314Z,27.30
2018-03-28T06:33:22.204Z,34.80
2018-03-28T06:35:50.067Z,25.67
2018-03-28T06:38:17.912Z,32.97
2018-03-28T06:40:46.673Z,25.17
2018-03-28T06:43:14.515Z,34.00
2018-03-28T06:45:42.381Z,29.17
2018-03-28T06:48:10.288Z,31.00
2018-03-28T06:50:38.191Z,31.33
2018-03-28T06:53:06.031Z,34.03
2018-03-28T06:55:33.881Z,34.53
2018-03-28T06:58:01.825Z,29.30
2018-03-28T07:00:29.683Z,25.50
2018-03-28T07:02:57.600Z,27.70
2018-03-28T07:05:25.481Z,32.57
2018-03-28T07:07:53.349Z,28.27
2018-03-28T07:10:21.275Z,35.00
2018-03-28T07:12:49.145Z,34.73
2018-03-28T07:15:17.070Z,45.77
2018-03-28T07:17:44.947Z,37.83
2018-03-28T07:20:12.824Z,31.73
2018-03-28T07:22:40.779Z,33.87
2018-03-28T07:25:08.636Z,37.10
2018-03-28T07:27:36.968Z,38.77
2018-03-28T07:30:04.826Z,35.80
2018-03-28T07:32:32.970Z,38.00
2018-03-28T07:35:01.656Z,29.67
2018-03-28T07:37:29.525Z,38.10
2018-03-28T07:39:57.399Z,39.20
2018-03-28T07:42:25.335Z,37.17
2018-03-28T07:44:53.244Z,40.77
2018-03-28T07:47:21.193Z,41.13
2018-03-28T07:49:49.126Z,41.10
2018-03-28T07:52:17.007Z,39.57
2018-03-28T07:54:44.896Z,41.40
2018-03-28T07:57:12.801Z,42.27
2018-03-28T07:59:40.932Z,42.43
2018-03-28T08:02:08.941Z,40.97
2018-03-28T08:04:36.815Z,41.70
2018-03-28T08:07:07.733Z,41.73
2018-03-28T08:09:35.681Z,41.33
2018-03-28T08:12:03.497Z,42.10
2018-03-28T08:14:31.620Z,40.27
2018-03-28T08:16:59.492Z,38.20
2018-03-28T08:19:27.382Z,39.47
2018-03-28T08:21:55.327Z,41.20
2018-03-28T08:24:23.223Z,36.00
2018-03-28T08:26:51.089Z,42.70
2018-03-28T08:29:18.964Z,38.40
2018-03-28T08:31:46.917Z,33.30
2018-03-28T08:34:14.836Z,31.43
2018-03-28T08:36:43.227Z,37.43
2018-03-28T08:39:12.069Z,35.47
2018-03-28T08:41:41.507Z,31.83
2018-03-28T08:44:12.115Z,39.30
2018-03-28T08:46:41.251Z,36.60
2018-03-28T08:49:09.695Z,42.93
2018-03-28T08:51:38.171Z,41.97
2018-03-28T08:54:06.400Z,35.10
2018-03-28T08:56:34.264Z,44.70
2018-03-28T08:59:02.182Z,43.17
2018-03-28T09:01:30.081Z,39.80
2018-03-28T09:03:57.951Z,50.20
2018-03-28T09:06:25.874Z,42.73
2018-03-28T09:08:53.759Z,42.13
2018-03-28T09:11:21.625Z,45.90
2018-03-28T09:13:49.578Z,42.03
2018-03-28T09:16:17.563Z,42.13
2018-03-28T09:18:45.482Z,42.27
2018-03-28T09:21:13.515Z,40.80
2018-03-28T09:23:41.688Z,46.43
2018-03-28T09:26:09.938Z,43.77
2018-03-28T09:28:37.983Z,43.70
2018-03-28T09:31:05.954Z,32.60
2018-03-28T09:33:33.919Z,42.70
2018-03-28T09:36:01.878Z,44.33
2018-03-28T09:38:29.748Z,43.23
2018-03-28T09:40:57.643Z,42.57
2018-03-28T09:43:25.861Z,32.93
2018-03-28T09:45:53.929Z,39.93
2018-03-28T09:48:22.069Z,38.50
2018-03-28T09:50:50.385Z,39.43
2018-03-28T09:53:18.325Z,42.73
2018-03-28T09:55:46.420Z,42.33
2018-03-28T09:58:15.296Z,44.77
2018-03-28T10:00:45.160Z,41.20
2018-03-28T10:03:13.296Z,42.73
2018-03-28T10:05:41.363Z,37.80
2018-03-28T10:08:09.285Z,40.23
2018-03-28T10:10:37.211Z,42.93
2018-03-28T10:13:05.078Z,41.57
2018-03-28T10:15:33.832Z,44.80
2018-03-28T10:18:01.824Z,44.83
2018-03-28T10:20:29.638Z,42.93
2018-03-28T10:22:57.512Z,45.93
2018-03-28T10:25:25.368Z,45.53
2018-03-28T10:27:53.315Z,44.33
2018-03-28T10:30:21.180Z,44.60
2018-03-28T10:32:49.030Z,40.63
2018-03-28T10:35:16.956Z,42.70
2018-03-28T10:37:44.818Z,44.73
2018-03-28T10:40:12.992Z,46.57
2018-03-28T10:42:40.881Z,45.40
2018-03-28T10:45:09.808Z,36.73
2018-03-28T10:47:37.708Z,44.33
2018-03-28T10:50:05.617Z,46.80
2018-03-28T10:52:33.498Z,43.87
2018-03-28T10:55:01.396Z,47.13
2018-03-28T10:57:29.261Z,46.80
2018-03-28T10:59:57.215Z,44.47
2018-03-28T11:02:25.067Z,42.43
2018-03-28T11:04:53.035Z,45.50
2018-03-28T11:07:20.978Z,45.23
2018-03-28T11:09:48.922Z,45.23
2018-03-28T11:12:16.813Z,46.90
2018-03-28T11:14:44.793Z,44.77
2018-03-28T11:17:12.698Z,44.80
2018-03-28T11:19:40.574Z,46.50
2018-03-28T11:22:08.469Z,37.43
2018-03-28T11:24:37.223Z,47.70
2018-03-28T11:27:05.213Z,44.20
2018-03-28T11:29:33.094Z,49.20
2018-03-28T11:32:12.674Z,37.43
2018-03-28T11:34:41.105Z,46.43
2018-03-28T11:37:09.107Z,42.97
2018-03-28T11:39:37.560Z,40.17
2018-03-28T11:42:05.469Z,35.57
2018-03-28T11:44:33.399Z,40.80
2018-03-28T11:47:01.267Z,38.00
2018-03-28T11:49:29.157Z,36.97
2018-03-28T11:51:57.057Z,34.77
2018-03-28T11:54:24.903Z,37.37
2018-03-28T11:56:52.812Z,37.43
2018-03-28T11:59:20.667Z,25.43
2018-03-28T12:01:48.533Z,38.00
2018-03-28T12:04:16.416Z,34.97
2018-03-28T12:06:44.284Z,30.17
2018-03-28T12:09:12.194Z,33.17
2018-03-28T12:11:40.064Z,30.17
2018-03-28T12:14:07.960Z,28.70
2018-03-28T12:16:35.815Z,36.97
2018-03-28T12:19:03.717Z,27.10
2018-03-28T12:21:31.715Z,26.33
2018-03-28T12:23:59.657Z,31.37
2018-03-28T12:26:27.552Z,34.47
2018-03-28T12:28:55.436Z,32.87
2018-03-28T12:31:23.432Z,35.03
2018-03-28T12:33:51.328Z,30.40
2018-03-28T12:36:19.212Z,32.77
2018-03-28T12:38:47.065Z,35.67
2018-03-28T12:41:14.999Z,26.93
2018-03-28T12:43:42.873Z,31.13
2018-03-28T12:46:10.739Z,33.00
2018-03-28T12:48:38.644Z,32.70
2018-03-28T12:51:06.514Z,33.03
2018-03-28T12:53:34.445Z,35.60
2018-03-28T12:56:02.355Z,31.67
2018-03-28T12:58:30.195Z,36.47
2018-03-28T13:01:01.279Z,30.80
2018-03-28T13:03:29.153Z,36.90
2018-03-28T13:05:57.061Z,38.37
2018-03-28T13:08:25.058Z,35.23
2018-03-28T13:10:55.751Z,36.40
2018-03-28T13:13:23.624Z,36.97
2018-03-28T13:15:51.523Z,35.87
2018-03-28T13:18:19.457Z,35.00
2018-03-28T13:20:47.333Z,35.77
2018-03-28T13:23:15.216Z,32.90
2018-03-28T13:25:43.104Z,25.60
2018-03-28T13:28:11.024Z,33.23
2018-03-28T13:30:38.904Z,31.43
2018-03-28T13:33:06.784Z,28.47
2018-03-28T13:35:34.665Z,31.70
2018-03-28T13:38:02.524Z,32.67
2018-03-28T13:40:30.540Z,34.20
2018-03-28T13:42:58.413Z,26.83
2018-03-28T13:45:26.266Z,34.03
2018-03-28T13:47:54.198Z,23.70
2018-03-28T13:50:22.087Z,29.60
2018-03-28T13:52:50.608Z,33.10
2018-03-28T13:55:18.506Z,30.60
2018-03-28T13:57:46.412Z,27.70
2018-03-28T14:00:14.379Z,30.47
2018-03-28T14:02:42.258Z,28.20
2018-03-28T14:05:10.289Z,25.17
2018-03-28T14:07:38.400Z,30.10
2018-03-28T14:10:06.394Z,30.97
2018-03-28T14:12:34.322Z,28.17
2018-03-28T14:15:02.218Z,31.60
2018-03-28T14:17:30.211Z,31.70
2018-03-28T14:19:58.903Z,27.50
2018-03-28T14:22:26.853Z,24.50
2018-03-28T14:24:54.695Z,31.70
2018-03-28T14:27:22.587Z,29.10
2018-03-28T14:29:50.483Z,29.50
2018-03-28T14:32:18.337Z,28.53
2018-03-28T14:34:46.285Z,27.40
2018-03-28T14:37:14.255Z,20.70
2018-03-28T14:39:42.181Z,21.50
2018-03-28T14:42:10.121Z,23.30
2018-03-28T14:44:38.081Z,26.20
2018-03-28T14:47:05.963Z,22.27
2018-03-28T14:49:33.852Z,24.10
2018-03-28T14:52:02.710Z,29.10
2018-03-28T14:54:30.618Z,17.83
2018-03-28T14:56:58.513Z,23.20
2018-03-28T14:59:26.420Z,28.43
2018-03-28T15:01:54.280Z,18.90
2018-03-28T15:04:22.229Z,27.03
2018-03-28T15:06:50.141Z,28.10
2018-03-28T15:09:18.006Z,24.67
2018-03-28T15:11:46.178Z,20.53
2018-03-28T15:14:14.235Z,26.30
2018-03-28T15:16:42.844Z,24.70
2018-03-28T15:19:10.969Z,26.97
2018-03-28T15:21:38.877Z,24.47
2018-03-28T15:24:06.752Z,29.57
2018-03-28T15:26:34.738Z,26.83
2018-03-28T15:29:02.640Z,22.37
2018-03-28T15:31:30.524Z,26.57
2018-03-28T15:33:59.019Z,26.70
2018-03-28T15:36:26.904Z,28.37
2018-03-28T15:38:54.756Z,25.30
2018-03-28T15:41:22.643Z,24.80
2018-03-28T15:43:50.614Z,27.40
2018-03-28T15:46:18.470Z,26.10
2018-03-28T15:48:46.497Z,26.23
2018-03-28T15:51:14.476Z,27.23
2018-03-28T15:53:42.415Z,27.73
2018-03-28T15:56:10.332Z,26.03
2018-03-28T15:58:38.284Z,25.53
2018-03-28T16:01:06.160Z,25.80
2018-03-28T16:03:34.070Z,28.00
2018-03-28T16:06:01.949Z,26.80
2018-03-28T16:08:30.063Z,28.57
2018-03-28T16:10:57.970Z,29.57
2018-03-28T16:13:25.862Z,29.60
2018-03-28T16:15:53.750Z,30.70
2018-03-28T16:18:21.709Z,24.23
2018-03-28T16:20:49.666Z,29.50
2018-03-28T16:23:17.544Z,28.17
2018-03-28T16:25:45.416Z,24.23
2018-03-28T16:28:13.342Z,23.80
2018-03-28T16:30:41.401Z,30.00
2018-03-28T16:33:09.316Z,29.90
2018-03-28T16:35:37.204Z,31.07
2018-03-28T16:38:05.182Z,26.80
2018-03-28T16:40:33.081Z,21.37
2018-03-28T16:43:01.051Z,27.53
2018-03-28T16:45:28.966Z,23.53
2018-03-28T16:47:56.859Z,28.73
2018-03-28T16:50:24.797Z,30.17
2018-03-28T16:52:52.652Z,31.80
2018-03-28T16:55:20.626Z,25.70
2018-03-28T16:57:48.836Z,29.20
2018-03-28T17:00:17.706Z,29.47
2018-03-28T17:02:45.712Z,27.23
2018-03-28T17:05:13.588Z,30.20
2018-03-28T17:07:41.620Z,27.53
2018-03-28T17:10:09.880Z,26.90
2018-03-28T17:12:37.810Z,28.17
2018-03-28T17:15:05.703Z,31.27
2018-03-28T17:17:33.602Z,29.83
2018-03-28T17:20:01.521Z,21.80
2018-03-28T17:22:29.407Z,28.40
2018-03-28T17:24:57.338Z,28.40
2018-03-28T17:27:25.205Z,29.87
2018-03-28T17:29:53.147Z,26.83
2018-03-28T17:32:21.025Z,32.33
2018-03-28T17:34:49.070Z,34.63
2018-03-28T17:37:17.054Z,29.17
2018-03-28T17:39:44.940Z,26.73
2018-03-28T17:42:12.813Z,30.70
2018-03-28T17:44:40.764Z,24.30
2018-03-28T17:47:08.732Z,24.77
2018-03-28T17:49:36.600Z,25.00
2018-03-28T17:52:04.516Z,26.67
2018-03-28T17:54:32.377Z,26.10
2018-03-28T17:57:00.384Z,24.57
2018-03-28T17:59:28.399Z,27.37
2018-03-28T18:01:56.392Z,27.73
2018-03-28T18:04:24.280Z,34.20
2018-03-28T18:06:52.175Z,32.10
2018-03-28T18:09:20.024Z,31.17
2018-03-28T18:11:47.900Z,31.77
2018-03-28T18:14:15.779Z,31.23
2018-03-28T18:16:43.752Z,26.77
2018-03-28T18:19:11.694Z,33.57
2018-03-28T18:21:39.644Z,30.10
2018-03-28T18:24:07.502Z,33.90
2018-03-28T18:26:35.441Z,30.73
2018-03-28T18:29:03.363Z,32.93
2018-03-28T18:31:31.338Z,31.10
2018-03-28T18:33:59.261Z,35.23
2018-03-28T18:36:27.145Z,36.67
2018-03-28T18:38:56.089Z,27.33
2018-03-28T18:41:25.091Z,37.17
2018-03-28T18:43:54.188Z,35.13
2018-03-28T18:46:22.110Z,33.83
2018-03-28T18:48:49.968Z,24.93
2018-03-28T18:51:18.571Z,34.87
2018-03-28T18:53:46.632Z,29.67
2018-03-28T18:56:15.533Z,35.87
2018-03-28T18:58:43.439Z,38.43
2018-03-28T19:01:11.334Z,37.93
2018-03-28T19:03:40.845Z,35.57
2018-03-28T19:06:09.821Z,36.00
2018-03-28T19:08:38.375Z,37.43
2018-03-28T19:11:06.716Z,32.37
2018-03-28T19:13:40.607Z,37.90
2018-03-28T19:16:10.022Z,34.33
2018-03-28T19:18:38.325Z,36.07
2018-03-28T19:21:10.053Z,36.20
2018-03-28T19:23:37.933Z,30.57
2018-03-28T19:26:05.933Z,38.47
2018-03-28T19:28:34.339Z,35.87
2018-03-28T19:31:02.712Z,38.93
2018-03-28T19:33:30.884Z,35.50
2018-03-28T19:35:58.897Z,42.03
2018-03-28T19:38:27.264Z,37.43
2018-03-28T19:40:56.019Z,39.33
2018-03-28T19:43:25.872Z,36.17
2018-03-28T19:45:54.190Z,34.87
2018-03-28T19:48:22.442Z,36.43
2018-03-28T19:50:50.336Z,40.57
2018-03-28T19:53:18.270Z,39.20
2018-03-28T19:55:46.327Z,43.17
2018-03-28T19:58:14.372Z,32.30
2018-03-28T20:00:45.105Z,46.93
2018-03-28T20:03:13.132Z,42.90
2018-03-28T20:05:41.024Z,43.10
2018-03-28T20:08:10.264Z,47.40
2018-03-28T20:10:38.856Z,46.27
2018-03-28T20:13:06.741Z,38.80
2018-03-28T20:15:36.269Z,39.87
2018-03-28T20:18:04.149Z,43.10
2018-03-28T20:20:32.211Z,44.33
2018-03-28T20:23:00.149Z,45.10
2018-03-28T20:25:28.090Z,36.33
2018-03-28T20:27:55.967Z,45.50
2018-03-28T20:30:23.945Z,35.70
2018-03-28T20:32:51.846Z,34.07
2018-03-28T20:35:19.833Z,45.00
2018-03-28T20:37:47.797Z,43.20
2018-03-28T20:40:15.733Z,39.93
2018-03-28T20:42:43.583Z,47.07
2018-03-28T20:45:11.492Z,46.63
2018-03-28T20:47:39.581Z,46.33
2018-03-28T20:50:07.423Z,46.37
2018-03-28T20:52:35.279Z,44.20
2018-03-28T20:55:03.161Z,44.17
2018-03-28T20:57:31.091Z,45.90
2018-03-28T20:59:58.962Z,46.80
2018-03-28T21:02:26.870Z,47.47
2018-03-28T21:04:54.711Z,36.57
2018-03-28T21:07:22.574Z,45.97
2018-03-28T21:09:50.524Z,40.57
2018-03-28T21:12:18.411Z,41.47
2018-03-28T21:14:46.308Z,45.73
2018-03-28T21:17:14.222Z,46.43
2018-03-28T21:19:42.159Z,46.33
2018-03-28T21:22:10.038Z,37.43
2018-03-28T21:24:38.024Z,48.63
2018-03-28T21:27:05.948Z,47.67
2018-03-28T21:29:34.033Z,40.00
2018-03-28T21:32:02.137Z,29.57
2018-03-28T21:34:30.175Z,37.20
2018-03-28T21:36:59.694Z,41.90
2018-03-28T21:39:27.902Z,35.10
2018-03-28T21:41:55.932Z,39.40
2018-03-28T21:44:24.803Z,42.33
2018-03-28T21:46:52.664Z,40.10
2018-03-28T21:49:20.571Z,40.47
2018-03-28T21:51:48.412Z,34.53
2018-03-28T21:54:16.264Z,38.73
2018-03-28T21:56:44.195Z,35.27
2018-03-28T21:59:12.628Z,38.17
2018-03-28T22:01:40.508Z,23.47
2018-03-28T22:04:08.727Z,35.30
2018-03-28T22:06:37.003Z,33.80
2018-03-28T22:09:04.924Z,31.80
2018-03-28T22:11:32.802Z,35.07
2018-03-28T22:14:00.708Z,28.63
2018-03-28T22:16:28.608Z,31.27
2018-03-28T22:18:56.463Z,34.83
2018-03-28T22:21:24.375Z,28.70
2018-03-28T22:23:52.238Z,27.47
2018-03-28T22:26:20.107Z,34.37
2018-03-28T22:28:48.073Z,35.30
2018-03-28T22:31:16.000Z,34.27
2018-03-28T22:33:43.921Z,24.17
2018-03-28T22:36:11.816Z,29.83
2018-03-28T22:38:39.645Z,30.53
2018-03-28T22:41:07.556Z,26.93
2018-03-28T22:43:35.403Z,28.00
2018-03-28T22:46:03.247Z,29.50
2018-03-28T22:48:31.173Z,27.30
2018-03-28T22:50:59.160Z,31.43
2018-03-28T22:53:27.029Z,29.93
2018-03-28T22:55:54.916Z,31.03
2018-03-28T22:58:22.771Z,32.60
2018-03-28T23:00:50.641Z,32.17
2018-03-28T23:03:18.587Z,21.17
2018-03-28T23:05:46.435Z,25.57
2018-03-28T23:08:14.398Z,31.63
2018-03-28T23:10:42.355Z,30.80
2018-03-28T23:13:10.233Z,31.10
2018-03-28T23:15:38.080Z,31.50
2018-03-28T23:18:05.982Z,30.90
2018-03-28T23:20:33.822Z,31.40
2018-03-28T23:23:01.682Z,28.50
2018-03-28T23:25:29.681Z,30.03
2018-03-28T23:27:57.530Z,31.33
2018-03-28T23:30:25.388Z,31.43
2018-03-28T23:32:53.255Z,33.47
2018-03-28T23:35:21.113Z,32.73
2018-03-28T23:37:49.009Z,25.93
2018-03-28T23:40:16.965Z,31.53
2018-03-28T23:42:44.834Z,23.67
2018-03-28T23:45:12.701Z,24.83
2018-03-28T23:47:40.750Z,22.50
2018-03-28T23:50:08.664Z,29.77
2018-03-28T23:52:36.635Z,30.80
2018-03-28T23:55:04.624Z,31.97
2018-03-28T23:57:32.489Z,29.07
